sensor_id;sensor_type;location;lat;lon;timestamp;P1;durP1;ratioP1;P2;durP2;ratioP2
5999;SDS011;3028;49.468;7.694;2022-09-12T00:01:16;9.90;;;3.22;;
5999;SDS011;3028;49.468;7.694;2022-09-12T00:03:21;3.85;;;3.60;;
5999;SDS011;3028;49.468;7.694;2022-09-12T00:05:23;2.90;;;2.70;;
5999;SDS011;3028;49.468;7.694;2022-09-12T00:07:25;4.78;;;3.53;;
5999;SDS011;3028;49.468;7.694;2022-09-12T00:09:27;2.70;;;2.50;;
5999;SDS011;3028;49.468;7.694;2022-09-12T00:11:28;6.43;;;3.38;;
5999;SDS011;3028;49.468;7.694;2022-09-12T00:13:30;3.45;;;3.25;;
5999;SDS011;3028;49.468;7.694;2022-09-12T00:15:32;4.18;;;3.85;;
5999;SDS011;3028;49.468;7.694;2022-09-12T00:17:38;3.95;;;3.60;;
5999;SDS011;3028;49.468;7.694;2022-09-12T00:19:39;6.20;;;4.15;;
5999;SDS011;3028;49.468;7.694;2022-09-12T00:21:41;5.43;;;4.38;;
5999;SDS011;3028;49.468;7.694;2022-09-12T00:23:43;4.80;;;4.30;;
5999;SDS011;3028;49.468;7.694;2022-09-12T00:25:46;5.43;;;4.30;;
5999;SDS011;3028;49.468;7.694;2022-09-12T00:27:48;5.25;;;4.60;;
5999;SDS011;3028;49.468;7.694;2022-09-12T00:29:50;4.80;;;4.40;;
5999;SDS011;3028;49.468;7.694;2022-09-12T00:31:52;3.42;;;3.08;;
5999;SDS011;3028;49.468;7.694;2022-09-12T00:33:54;4.90;;;3.50;;
5999;SDS011;3028;49.468;7.694;2022-09-12T00:35:57;4.03;;;3.35;;
5999;SDS011;3028;49.468;7.694;2022-09-12T00:37:59;4.97;;;3.50;;
5999;SDS011;3028;49.468;7.694;2022-09-12T00:40:01;10.40;;;4.13;;
5999;SDS011;3028;49.468;7.694;2022-09-12T00:42:02;3.80;;;3.40;;
5999;SDS011;3028;49.468;7.694;2022-09-12T00:46:14;5.80;;;2.95;;
5999;SDS011;3028;49.468;7.694;2022-09-12T00:48:21;3.40;;;3.05;;
5999;SDS011;3028;49.468;7.694;2022-09-12T00:50:28;3.30;;;3.00;;
5999;SDS011;3028;49.468;7.694;2022-09-12T00:54:51;4.05;;;2.97;;
5999;SDS011;3028;49.468;7.694;2022-09-12T00:57:03;7.57;;;2.95;;
5999;SDS011;3028;49.468;7.694;2022-09-12T00:59:11;3.67;;;3.13;;
5999;SDS011;3028;49.468;7.694;2022-09-12T01:01:16;5.00;;;3.13;;
5999;SDS011;3028;49.468;7.694;2022-09-12T01:03:19;3.22;;;2.75;;
5999;SDS011;3028;49.468;7.694;2022-09-12T01:05:23;3.75;;;3.45;;
5999;SDS011;3028;49.468;7.694;2022-09-12T01:07:25;3.10;;;2.60;;
5999;SDS011;3028;49.468;7.694;2022-09-12T01:09:27;3.40;;;2.80;;
5999;SDS011;3028;49.468;7.694;2022-09-12T01:11:29;3.28;;;3.08;;
5999;SDS011;3028;49.468;7.694;2022-09-12T01:13:33;6.45;;;2.95;;
5999;SDS011;3028;49.468;7.694;2022-09-12T01:15:36;3.42;;;3.13;;
5999;SDS011;3028;49.468;7.694;2022-09-12T01:27:13;4.38;;;2.58;;
5999;SDS011;3028;49.468;7.694;2022-09-12T01:34:16;3.15;;;2.85;;
5999;SDS011;3028;49.468;7.694;2022-09-12T01:43:59;3.50;;;2.03;;
5999;SDS011;3028;49.468;7.694;2022-09-12T01:48:16;3.17;;;2.78;;
5999;SDS011;3028;49.468;7.694;2022-09-12T01:50:21;3.85;;;3.65;;
5999;SDS011;3028;49.468;7.694;2022-09-12T01:54:50;2.75;;;2.55;;
5999;SDS011;3028;49.468;7.694;2022-09-12T01:56:56;5.75;;;3.28;;
5999;SDS011;3028;49.468;7.694;2022-09-12T01:59:01;3.15;;;2.83;;
5999;SDS011;3028;49.468;7.694;2022-09-12T02:01:10;2.80;;;2.60;;
5999;SDS011;3028;49.468;7.694;2022-09-12T02:03:17;6.93;;;3.08;;
5999;SDS011;3028;49.468;7.694;2022-09-12T02:05:27;5.82;;;3.20;;
5999;SDS011;3028;49.468;7.694;2022-09-12T02:09:53;2.83;;;2.63;;
5999;SDS011;3028;49.468;7.694;2022-09-12T02:11:59;8.35;;;2.75;;
5999;SDS011;3028;49.468;7.694;2022-09-12T02:14:06;4.03;;;3.03;;
5999;SDS011;3028;49.468;7.694;2022-09-12T02:16:13;4.10;;;2.50;;
5999;SDS011;3028;49.468;7.694;2022-09-12T02:18:28;3.42;;;3.10;;
5999;SDS011;3028;49.468;7.694;2022-09-12T02:20:33;3.30;;;3.10;;
5999;SDS011;3028;49.468;7.694;2022-09-12T02:22:51;4.15;;;2.92;;
5999;SDS011;3028;49.468;7.694;2022-09-12T02:24:54;4.28;;;2.92;;
5999;SDS011;3028;49.468;7.694;2022-09-12T02:27:12;3.35;;;3.05;;
5999;SDS011;3028;49.468;7.694;2022-09-12T02:29:16;2.55;;;2.35;;
5999;SDS011;3028;49.468;7.694;2022-09-12T02:31:26;4.00;;;2.60;;
5999;SDS011;3028;49.468;7.694;2022-09-12T02:35:51;3.05;;;2.72;;
5999;SDS011;3028;49.468;7.694;2022-09-12T02:38:11;6.10;;;3.47;;
5999;SDS011;3028;49.468;7.694;2022-09-12T02:40:15;16.00;;;3.13;;
5999;SDS011;3028;49.468;7.694;2022-09-12T02:42:17;3.13;;;2.88;;
5999;SDS011;3028;49.468;7.694;2022-09-12T02:44:18;3.67;;;3.30;;
5999;SDS011;3028;49.468;7.694;2022-09-12T02:46:26;3.70;;;3.40;;
5999;SDS011;3028;49.468;7.694;2022-09-12T02:48:30;6.95;;;3.08;;
5999;SDS011;3028;49.468;7.694;2022-09-12T02:50:35;3.13;;;2.75;;
5999;SDS011;3028;49.468;7.694;2022-09-12T02:52:37;3.55;;;3.25;;
5999;SDS011;3028;49.468;7.694;2022-09-12T02:54:40;10.77;;;3.30;;
5999;SDS011;3028;49.468;7.694;2022-09-12T02:56:43;3.17;;;2.88;;
5999;SDS011;3028;49.468;7.694;2022-09-12T02:58:46;4.00;;;3.70;;
5999;SDS011;3028;49.468;7.694;2022-09-12T03:01:22;5.32;;;3.13;;
5999;SDS011;3028;49.468;7.694;2022-09-12T03:08:48;4.47;;;3.28;;
5999;SDS011;3028;49.468;7.694;2022-09-12T03:13:22;3.70;;;3.47;;
5999;SDS011;3028;49.468;7.694;2022-09-12T03:19:12;5.60;;;3.15;;
5999;SDS011;3028;49.468;7.694;2022-09-12T03:21:00;5.07;;;3.28;;
5999;SDS011;3028;49.468;7.694;2022-09-12T03:23:10;5.70;;;3.28;;
5999;SDS011;3028;49.468;7.694;2022-09-12T03:25:20;3.63;;;3.40;;
5999;SDS011;3028;49.468;7.694;2022-09-12T03:27:44;3.15;;;2.90;;
5999;SDS011;3028;49.468;7.694;2022-09-12T03:29:52;3.33;;;3.08;;
5999;SDS011;3028;49.468;7.694;2022-09-12T03:31:55;3.17;;;2.88;;
5999;SDS011;3028;49.468;7.694;2022-09-12T03:33:58;4.72;;;2.97;;
5999;SDS011;3028;49.468;7.694;2022-09-12T03:36:00;7.10;;;3.35;;
5999;SDS011;3028;49.468;7.694;2022-09-12T03:38:02;3.15;;;2.95;;
5999;SDS011;3028;49.468;7.694;2022-09-12T03:40:04;2.53;;;2.28;;
5999;SDS011;3028;49.468;7.694;2022-09-12T03:42:06;5.75;;;3.40;;
5999;SDS011;3028;49.468;7.694;2022-09-12T03:44:08;3.63;;;3.28;;
5999;SDS011;3028;49.468;7.694;2022-09-12T03:46:10;4.57;;;3.10;;
5999;SDS011;3028;49.468;7.694;2022-09-12T03:48:11;3.50;;;2.63;;
5999;SDS011;3028;49.468;7.694;2022-09-12T03:50:13;3.10;;;2.83;;
5999;SDS011;3028;49.468;7.694;2022-09-12T03:52:15;3.38;;;2.35;;
5999;SDS011;3028;49.468;7.694;2022-09-12T03:54:16;2.67;;;2.42;;
5999;SDS011;3028;49.468;7.694;2022-09-12T03:56:18;5.15;;;3.22;;
5999;SDS011;3028;49.468;7.694;2022-09-12T03:58:20;6.40;;;3.00;;
5999;SDS011;3028;49.468;7.694;2022-09-12T04:00:21;3.38;;;3.08;;
5999;SDS011;3028;49.468;7.694;2022-09-12T04:02:23;4.53;;;3.60;;
5999;SDS011;3028;49.468;7.694;2022-09-12T04:04:25;3.72;;;3.42;;
5999;SDS011;3028;49.468;7.694;2022-09-12T04:06:26;3.83;;;3.53;;
5999;SDS011;3028;49.468;7.694;2022-09-12T04:08:28;4.43;;;4.03;;
5999;SDS011;3028;49.468;7.694;2022-09-12T04:10:30;4.70;;;3.50;;
5999;SDS011;3028;49.468;7.694;2022-09-12T04:12:32;3.42;;;3.22;;
5999;SDS011;3028;49.468;7.694;2022-09-12T04:14:35;3.72;;;3.20;;
5999;SDS011;3028;49.468;7.694;2022-09-12T04:16:37;3.25;;;3.05;;
5999;SDS011;3028;49.468;7.694;2022-09-12T04:18:39;3.95;;;3.13;;
5999;SDS011;3028;49.468;7.694;2022-09-12T04:20:41;3.80;;;3.50;;
5999;SDS011;3028;49.468;7.694;2022-09-12T04:22:42;4.35;;;3.95;;
5999;SDS011;3028;49.468;7.694;2022-09-12T04:24:44;4.13;;;3.75;;
5999;SDS011;3028;49.468;7.694;2022-09-12T04:26:46;3.08;;;2.88;;
5999;SDS011;3028;49.468;7.694;2022-09-12T04:28:51;4.00;;;3.70;;
5999;SDS011;3028;49.468;7.694;2022-09-12T04:30:55;11.35;;;4.03;;
5999;SDS011;3028;49.468;7.694;2022-09-12T04:32:57;4.72;;;4.13;;
5999;SDS011;3028;49.468;7.694;2022-09-12T04:34:59;3.55;;;3.33;;
5999;SDS011;3028;49.468;7.694;2022-09-12T04:37:00;4.05;;;3.70;;
5999;SDS011;3028;49.468;7.694;2022-09-12T04:39:03;6.55;;;3.47;;
5999;SDS011;3028;49.468;7.694;2022-09-12T04:41:11;5.65;;;3.20;;
5999;SDS011;3028;49.468;7.694;2022-09-12T04:43:14;3.65;;;3.35;;
5999;SDS011;3028;49.468;7.694;2022-09-12T04:45:16;4.65;;;3.25;;
5999;SDS011;3028;49.468;7.694;2022-09-12T04:47:21;3.50;;;3.28;;
5999;SDS011;3028;49.468;7.694;2022-09-12T04:49:23;3.90;;;3.42;;
5999;SDS011;3028;49.468;7.694;2022-09-12T04:51:29;5.15;;;4.28;;
5999;SDS011;3028;49.468;7.694;2022-09-12T04:53:31;3.90;;;3.60;;
5999;SDS011;3028;49.468;7.694;2022-09-12T04:55:33;4.85;;;3.25;;
5999;SDS011;3028;49.468;7.694;2022-09-12T04:57:35;4.25;;;3.72;;
5999;SDS011;3028;49.468;7.694;2022-09-12T04:59:37;13.95;;;3.13;;
5999;SDS011;3028;49.468;7.694;2022-09-12T05:01:40;5.35;;;3.60;;
5999;SDS011;3028;49.468;7.694;2022-09-12T05:03:42;5.00;;;3.38;;
5999;SDS011;3028;49.468;7.694;2022-09-12T05:05:44;3.70;;;3.35;;
5999;SDS011;3028;49.468;7.694;2022-09-12T05:07:46;3.13;;;2.80;;
5999;SDS011;3028;49.468;7.694;2022-09-12T05:09:47;5.22;;;3.83;;
5999;SDS011;3028;49.468;7.694;2022-09-12T05:11:49;2.80;;;2.53;;
5999;SDS011;3028;49.468;7.694;2022-09-12T05:14:07;3.03;;;2.80;;
5999;SDS011;3028;49.468;7.694;2022-09-12T05:16:10;2.97;;;2.80;;
5999;SDS011;3028;49.468;7.694;2022-09-12T05:18:13;4.05;;;2.97;;
5999;SDS011;3028;49.468;7.694;2022-09-12T05:20:15;4.30;;;3.08;;
5999;SDS011;3028;49.468;7.694;2022-09-12T05:22:17;4.32;;;3.38;;
5999;SDS011;3028;49.468;7.694;2022-09-12T05:24:19;3.67;;;2.92;;
5999;SDS011;3028;49.468;7.694;2022-09-12T05:26:21;4.07;;;3.67;;
5999;SDS011;3028;49.468;7.694;2022-09-12T05:28:24;6.72;;;4.00;;
5999;SDS011;3028;49.468;7.694;2022-09-12T05:30:28;4.05;;;3.75;;
5999;SDS011;3028;49.468;7.694;2022-09-12T05:32:30;5.28;;;3.63;;
5999;SDS011;3028;49.468;7.694;2022-09-12T05:34:32;3.00;;;2.70;;
5999;SDS011;3028;49.468;7.694;2022-09-12T05:36:34;4.50;;;3.38;;
5999;SDS011;3028;49.468;7.694;2022-09-12T05:38:37;3.55;;;3.22;;
5999;SDS011;3028;49.468;7.694;2022-09-12T05:40:39;8.02;;;2.85;;
5999;SDS011;3028;49.468;7.694;2022-09-12T05:42:40;4.53;;;3.00;;
5999;SDS011;3028;49.468;7.694;2022-09-12T05:44:42;3.25;;;2.92;;
5999;SDS011;3028;49.468;7.694;2022-09-12T05:46:44;4.68;;;3.97;;
5999;SDS011;3028;49.468;7.694;2022-09-12T05:48:50;3.75;;;3.45;;
5999;SDS011;3028;49.468;7.694;2022-09-12T05:51:00;3.60;;;3.30;;
5999;SDS011;3028;49.468;7.694;2022-09-12T05:53:09;3.70;;;3.40;;
5999;SDS011;3028;49.468;7.694;2022-09-12T05:55:11;4.57;;;4.18;;
5999;SDS011;3028;49.468;7.694;2022-09-12T05:57:13;5.07;;;4.25;;
5999;SDS011;3028;49.468;7.694;2022-09-12T05:59:19;7.10;;;4.35;;
5999;SDS011;3028;49.468;7.694;2022-09-12T06:01:21;4.35;;;3.95;;
5999;SDS011;3028;49.468;7.694;2022-09-12T06:03:23;5.70;;;5.20;;
5999;SDS011;3028;49.468;7.694;2022-09-12T06:05:25;16.60;;;5.13;;
5999;SDS011;3028;49.468;7.694;2022-09-12T06:07:27;15.15;;;5.65;;
5999;SDS011;3028;49.468;7.694;2022-09-12T06:09:29;11.02;;;5.15;;
5999;SDS011;3028;49.468;7.694;2022-09-12T06:11:31;8.23;;;7.40;;
5999;SDS011;3028;49.468;7.694;2022-09-12T06:13:34;6.13;;;5.63;;
5999;SDS011;3028;49.468;7.694;2022-09-12T06:15:37;5.45;;;5.00;;
5999;SDS011;3028;49.468;7.694;2022-09-12T06:17:39;6.13;;;4.78;;
5999;SDS011;3028;49.468;7.694;2022-09-12T06:19:40;5.70;;;5.30;;
5999;SDS011;3028;49.468;7.694;2022-09-12T06:21:42;5.22;;;4.82;;
5999;SDS011;3028;49.468;7.694;2022-09-12T06:23:44;5.05;;;4.65;;
5999;SDS011;3028;49.468;7.694;2022-09-12T06:25:47;4.88;;;4.57;;
5999;SDS011;3028;49.468;7.694;2022-09-12T06:27:50;4.88;;;4.47;;
5999;SDS011;3028;49.468;7.694;2022-09-12T06:29:51;8.32;;;5.10;;
5999;SDS011;3028;49.468;7.694;2022-09-12T06:31:53;4.85;;;4.45;;
5999;SDS011;3028;49.468;7.694;2022-09-12T06:33:55;5.07;;;4.78;;
5999;SDS011;3028;49.468;7.694;2022-09-12T06:38:12;4.20;;;3.80;;
5999;SDS011;3028;49.468;7.694;2022-09-12T06:40:14;3.90;;;3.60;;
5999;SDS011;3028;49.468;7.694;2022-09-12T06:42:16;4.18;;;3.80;;
5999;SDS011;3028;49.468;7.694;2022-09-12T06:44:20;3.88;;;3.50;;
5999;SDS011;3028;49.468;7.694;2022-09-12T06:46:23;3.30;;;3.00;;
5999;SDS011;3028;49.468;7.694;2022-09-12T06:48:25;3.88;;;3.53;;
5999;SDS011;3028;49.468;7.694;2022-09-12T06:50:27;4.22;;;3.33;;
5999;SDS011;3028;49.468;7.694;2022-09-12T06:52:29;3.63;;;3.33;;
5999;SDS011;3028;49.468;7.694;2022-09-12T06:54:31;3.95;;;3.65;;
5999;SDS011;3028;49.468;7.694;2022-09-12T06:56:32;3.90;;;3.63;;
5999;SDS011;3028;49.468;7.694;2022-09-12T06:58:34;3.78;;;3.30;;
5999;SDS011;3028;49.468;7.694;2022-09-12T07:00:36;4.88;;;3.33;;
5999;SDS011;3028;49.468;7.694;2022-09-12T07:02:38;3.03;;;2.78;;
5999;SDS011;3028;49.468;7.694;2022-09-12T07:04:40;5.43;;;3.08;;
5999;SDS011;3028;49.468;7.694;2022-09-12T07:06:42;3.80;;;3.38;;
5999;SDS011;3028;49.468;7.694;2022-09-12T07:08:45;3.63;;;2.75;;
5999;SDS011;3028;49.468;7.694;2022-09-12T07:10:47;6.90;;;3.47;;
5999;SDS011;3028;49.468;7.694;2022-09-12T07:12:49;4.35;;;4.10;;
5999;SDS011;3028;49.468;7.694;2022-09-12T07:14:50;5.47;;;4.97;;
5999;SDS011;3028;49.468;7.694;2022-09-12T07:16:52;3.67;;;3.47;;
5999;SDS011;3028;49.468;7.694;2022-09-12T07:18:54;5.60;;;4.78;;
5999;SDS011;3028;49.468;7.694;2022-09-12T07:21:01;3.92;;;3.70;;
5999;SDS011;3028;49.468;7.694;2022-09-12T07:23:03;5.30;;;3.13;;
5999;SDS011;3028;49.468;7.694;2022-09-12T07:25:05;4.18;;;3.88;;
5999;SDS011;3028;49.468;7.694;2022-09-12T07:27:07;4.00;;;3.70;;
5999;SDS011;3028;49.468;7.694;2022-09-12T07:29:13;2.97;;;2.80;;
5999;SDS011;3028;49.468;7.694;2022-09-12T07:31:36;4.38;;;4.07;;
5999;SDS011;3028;49.468;7.694;2022-09-12T07:33:38;3.97;;;3.78;;
5999;SDS011;3028;49.468;7.694;2022-09-12T07:35:40;3.67;;;3.38;;
5999;SDS011;3028;49.468;7.694;2022-09-12T07:37:42;3.83;;;3.53;;
5999;SDS011;3028;49.468;7.694;2022-09-12T07:39:43;3.40;;;3.10;;
5999;SDS011;3028;49.468;7.694;2022-09-12T07:41:45;4.35;;;4.00;;
5999;SDS011;3028;49.468;7.694;2022-09-12T07:43:48;5.22;;;4.88;;
5999;SDS011;3028;49.468;7.694;2022-09-12T07:45:55;3.25;;;3.05;;
5999;SDS011;3028;49.468;7.694;2022-09-12T07:47:57;3.88;;;3.58;;
5999;SDS011;3028;49.468;7.694;2022-09-12T07:49:59;4.07;;;3.72;;
5999;SDS011;3028;49.468;7.694;2022-09-12T07:52:01;4.88;;;4.28;;
5999;SDS011;3028;49.468;7.694;2022-09-12T07:54:06;5.40;;;5.00;;
5999;SDS011;3028;49.468;7.694;2022-09-12T07:56:09;5.05;;;4.75;;
5999;SDS011;3028;49.468;7.694;2022-09-12T07:58:11;6.05;;;5.65;;
5999;SDS011;3028;49.468;7.694;2022-09-12T08:00:13;5.45;;;5.05;;
5999;SDS011;3028;49.468;7.694;2022-09-12T08:02:16;7.85;;;4.53;;
5999;SDS011;3028;49.468;7.694;2022-09-12T08:04:18;5.63;;;5.22;;
5999;SDS011;3028;49.468;7.694;2022-09-12T08:06:20;5.10;;;4.70;;
5999;SDS011;3028;49.468;7.694;2022-09-12T08:08:24;4.65;;;4.35;;
5999;SDS011;3028;49.468;7.694;2022-09-12T08:10:26;6.22;;;4.63;;
5999;SDS011;3028;49.468;7.694;2022-09-12T08:12:27;5.10;;;4.60;;
5999;SDS011;3028;49.468;7.694;2022-09-12T08:14:29;4.25;;;3.95;;
5999;SDS011;3028;49.468;7.694;2022-09-12T08:16:31;6.13;;;4.40;;
5999;SDS011;3028;49.468;7.694;2022-09-12T08:18:33;7.75;;;4.20;;
5999;SDS011;3028;49.468;7.694;2022-09-12T08:20:35;6.30;;;4.40;;
5999;SDS011;3028;49.468;7.694;2022-09-12T08:22:37;5.63;;;3.83;;
5999;SDS011;3028;49.468;7.694;2022-09-12T08:24:40;4.85;;;4.35;;
5999;SDS011;3028;49.468;7.694;2022-09-12T08:26:42;4.25;;;3.95;;
5999;SDS011;3028;49.468;7.694;2022-09-12T08:28:44;13.35;;;4.53;;
5999;SDS011;3028;49.468;7.694;2022-09-12T08:30:46;6.32;;;4.47;;
5999;SDS011;3028;49.468;7.694;2022-09-12T08:32:47;4.95;;;4.55;;
5999;SDS011;3028;49.468;7.694;2022-09-12T08:34:49;4.35;;;3.95;;
5999;SDS011;3028;49.468;7.694;2022-09-12T08:36:51;4.43;;;4.13;;
5999;SDS011;3028;49.468;7.694;2022-09-12T08:38:56;4.30;;;4.00;;
5999;SDS011;3028;49.468;7.694;2022-09-12T08:41:10;4.38;;;4.07;;
5999;SDS011;3028;49.468;7.694;2022-09-12T08:43:26;4.95;;;4.03;;
5999;SDS011;3028;49.468;7.694;2022-09-12T08:45:42;5.05;;;4.75;;
5999;SDS011;3028;49.468;7.694;2022-09-12T08:47:49;5.03;;;4.57;;
5999;SDS011;3028;49.468;7.694;2022-09-12T08:52:02;4.05;;;3.75;;
5999;SDS011;3028;49.468;7.694;2022-09-12T08:54:28;5.53;;;3.67;;
5999;SDS011;3028;49.468;7.694;2022-09-12T08:56:30;5.18;;;4.85;;
5999;SDS011;3028;49.468;7.694;2022-09-12T08:58:39;4.45;;;4.07;;
5999;SDS011;3028;49.468;7.694;2022-09-12T09:11:21;4.35;;;3.85;;
5999;SDS011;3028;49.468;7.694;2022-09-12T09:16:38;4.88;;;4.47;;
5999;SDS011;3028;49.468;7.694;2022-09-12T09:18:42;4.82;;;4.43;;
5999;SDS011;3028;49.468;7.694;2022-09-12T09:20:52;4.10;;;3.72;;
5999;SDS011;3028;49.468;7.694;2022-09-12T09:23:05;4.32;;;3.92;;
5999;SDS011;3028;49.468;7.694;2022-09-12T09:25:24;4.05;;;3.75;;
5999;SDS011;3028;49.468;7.694;2022-09-12T09:29:45;3.67;;;3.38;;
5999;SDS011;3028;49.468;7.694;2022-09-12T09:31:51;3.70;;;3.40;;
5999;SDS011;3028;49.468;7.694;2022-09-12T09:33:53;4.90;;;3.03;;
5999;SDS011;3028;49.468;7.694;2022-09-12T09:40:36;5.32;;;3.63;;
5999;SDS011;3028;49.468;7.694;2022-09-12T09:42:56;3.15;;;2.95;;
5999;SDS011;3028;49.468;7.694;2022-09-12T09:45:15;2.70;;;2.50;;
5999;SDS011;3028;49.468;7.694;2022-09-12T09:47:19;2.63;;;2.42;;
5999;SDS011;3028;49.468;7.694;2022-09-12T09:49:20;2.97;;;2.78;;
5999;SDS011;3028;49.468;7.694;2022-09-12T09:51:27;2.75;;;2.55;;
5999;SDS011;3028;49.468;7.694;2022-09-12T09:53:42;3.47;;;3.17;;
5999;SDS011;3028;49.468;7.694;2022-09-12T09:55:46;3.35;;;2.67;;
5999;SDS011;3028;49.468;7.694;2022-09-12T09:57:49;2.97;;;2.78;;
5999;SDS011;3028;49.468;7.694;2022-09-12T09:59:52;2.67;;;2.47;;
5999;SDS011;3028;49.468;7.694;2022-09-12T10:01:54;2.63;;;2.42;;
5999;SDS011;3028;49.468;7.694;2022-09-12T10:03:57;2.40;;;2.20;;
5999;SDS011;3028;49.468;7.694;2022-09-12T10:06:00;2.67;;;2.35;;
5999;SDS011;3028;49.468;7.694;2022-09-12T10:08:09;2.38;;;2.17;;
5999;SDS011;3028;49.468;7.694;2022-09-12T10:10:15;2.90;;;2.20;;
5999;SDS011;3028;49.468;7.694;2022-09-12T10:12:19;2.30;;;2.10;;
5999;SDS011;3028;49.468;7.694;2022-09-12T10:16:53;2.28;;;2.17;;
5999;SDS011;3028;49.468;7.694;2022-09-12T10:18:55;2.22;;;2.13;;
5999;SDS011;3028;49.468;7.694;2022-09-12T10:20:58;2.22;;;2.03;;
5999;SDS011;3028;49.468;7.694;2022-09-12T10:23:27;2.35;;;2.08;;
5999;SDS011;3028;49.468;7.694;2022-09-12T10:25:35;2.08;;;1.85;;
5999;SDS011;3028;49.468;7.694;2022-09-12T10:27:37;2.15;;;1.95;;
5999;SDS011;3028;49.468;7.694;2022-09-12T10:30:21;2.05;;;1.95;;
5999;SDS011;3028;49.468;7.694;2022-09-12T10:32:06;2.20;;;2.00;;
5999;SDS011;3028;49.468;7.694;2022-09-12T10:34:18;1.73;;;1.63;;
5999;SDS011;3028;49.468;7.694;2022-09-12T10:36:36;3.55;;;2.08;;
5999;SDS011;3028;49.468;7.694;2022-09-12T10:38:39;2.25;;;2.05;;
5999;SDS011;3028;49.468;7.694;2022-09-12T10:40:56;2.35;;;2.05;;
5999;SDS011;3028;49.468;7.694;2022-09-12T10:43:02;1.80;;;1.70;;
5999;SDS011;3028;49.468;7.694;2022-09-12T10:45:30;1.48;;;1.38;;
5999;SDS011;3028;49.468;7.694;2022-09-12T10:47:35;2.30;;;2.10;;
5999;SDS011;3028;49.468;7.694;2022-09-12T10:49:38;3.20;;;1.67;;
5999;SDS011;3028;49.468;7.694;2022-09-12T10:51:40;3.38;;;1.60;;
5999;SDS011;3028;49.468;7.694;2022-09-12T10:53:42;3.42;;;1.92;;
5999;SDS011;3028;49.468;7.694;2022-09-12T11:00:13;1.90;;;1.80;;
5999;SDS011;3028;49.468;7.694;2022-09-12T11:02:27;2.38;;;1.95;;
5999;SDS011;3028;49.468;7.694;2022-09-12T11:09:45;2.05;;;1.95;;
5999;SDS011;3028;49.468;7.694;2022-09-12T11:25:42;7.32;;;1.50;;
5999;SDS011;3028;49.468;7.694;2022-09-12T11:27:55;2.78;;;2.40;;
5999;SDS011;3028;49.468;7.694;2022-09-12T11:30:17;1.70;;;1.60;;
5999;SDS011;3028;49.468;7.694;2022-09-12T11:34:58;1.45;;;1.25;;
5999;SDS011;3028;49.468;7.694;2022-09-12T11:37:13;1.63;;;1.48;;
5999;SDS011;3028;49.468;7.694;2022-09-12T11:39:35;1.38;;;1.30;;
5999;SDS011;3028;49.468;7.694;2022-09-12T11:41:44;1.42;;;1.33;;
5999;SDS011;3028;49.468;7.694;2022-09-12T11:46:35;1.30;;;1.20;;
5999;SDS011;3028;49.468;7.694;2022-09-12T11:48:46;1.35;;;1.10;;
5999;SDS011;3028;49.468;7.694;2022-09-12T11:50:52;1.63;;;1.10;;
5999;SDS011;3028;49.468;7.694;2022-09-12T11:52:59;1.25;;;1.10;;
5999;SDS011;3028;49.468;7.694;2022-09-12T11:55:23;2.10;;;1.60;;
5999;SDS011;3028;49.468;7.694;2022-09-12T11:57:33;1.27;;;1.17;;
5999;SDS011;3028;49.468;7.694;2022-09-12T11:59:47;1.42;;;1.30;;
5999;SDS011;3028;49.468;7.694;2022-09-12T12:01:53;1.33;;;1.20;;
5999;SDS011;3028;49.468;7.694;2022-09-12T12:04:00;1.15;;;1.02;;
5999;SDS011;3028;49.468;7.694;2022-09-12T12:06:27;1.38;;;1.20;;
5999;SDS011;3028;49.468;7.694;2022-09-12T12:08:37;1.30;;;1.20;;
5999;SDS011;3028;49.468;7.694;2022-09-12T12:10:41;1.23;;;1.10;;
5999;SDS011;3028;49.468;7.694;2022-09-12T12:12:45;3.40;;;1.23;;
5999;SDS011;3028;49.468;7.694;2022-09-12T12:14:48;3.13;;;0.90;;
5999;SDS011;3028;49.468;7.694;2022-09-12T12:16:52;1.30;;;0.90;;
5999;SDS011;3028;49.468;7.694;2022-09-12T12:18:57;1.15;;;0.80;;
5999;SDS011;3028;49.468;7.694;2022-09-12T12:21:18;1.85;;;1.20;;
5999;SDS011;3028;49.468;7.694;2022-09-12T12:23:26;1.02;;;1.00;;
5999;SDS011;3028;49.468;7.694;2022-09-12T12:28:01;1.17;;;1.02;;
5999;SDS011;3028;49.468;7.694;2022-09-12T12:30:22;0.95;;;0.95;;
5999;SDS011;3028;49.468;7.694;2022-09-12T12:32:30;0.88;;;0.85;;
5999;SDS011;3028;49.468;7.694;2022-09-12T12:34:35;1.08;;;1.00;;
5999;SDS011;3028;49.468;7.694;2022-09-12T12:36:38;1.20;;;1.10;;
5999;SDS011;3028;49.468;7.694;2022-09-12T12:38:41;2.67;;;1.23;;
5999;SDS011;3028;49.468;7.694;2022-09-12T12:40:42;2.85;;;0.90;;
5999;SDS011;3028;49.468;7.694;2022-09-12T12:44:47;1.42;;;1.30;;
5999;SDS011;3028;49.468;7.694;2022-09-12T12:47:11;0.80;;;0.80;;
5999;SDS011;3028;49.468;7.694;2022-09-12T12:49:24;0.98;;;0.50;;
5999;SDS011;3028;49.468;7.694;2022-09-12T12:51:32;0.63;;;0.63;;
5999;SDS011;3028;49.468;7.694;2022-09-12T12:53:35;1.20;;;1.00;;
5999;SDS011;3028;49.468;7.694;2022-09-12T12:59:51;0.82;;;0.68;;
5999;SDS011;3028;49.468;7.694;2022-09-12T13:01:55;0.77;;;0.75;;
5999;SDS011;3028;49.468;7.694;2022-09-12T13:03:59;0.80;;;0.80;;
5999;SDS011;3028;49.468;7.694;2022-09-12T13:06:07;1.67;;;0.80;;
5999;SDS011;3028;49.468;7.694;2022-09-12T13:08:17;1.20;;;1.08;;
5999;SDS011;3028;49.468;7.694;2022-09-12T13:10:25;1.15;;;0.80;;
5999;SDS011;3028;49.468;7.694;2022-09-12T13:12:31;0.60;;;0.60;;
5999;SDS011;3028;49.468;7.694;2022-09-12T13:14:49;0.70;;;0.70;;
5999;SDS011;3028;49.468;7.694;2022-09-12T13:16:58;1.48;;;0.73;;
5999;SDS011;3028;49.468;7.694;2022-09-12T13:19:05;0.60;;;0.60;;
5999;SDS011;3028;49.468;7.694;2022-09-12T13:21:15;0.50;;;0.50;;
5999;SDS011;3028;49.468;7.694;2022-09-12T13:23:21;1.10;;;1.00;;
5999;SDS011;3028;49.468;7.694;2022-09-12T13:27:36;1.63;;;0.90;;
5999;SDS011;3028;49.468;7.694;2022-09-12T13:29:37;0.98;;;0.88;;
5999;SDS011;3028;49.468;7.694;2022-09-12T13:31:39;1.10;;;0.85;;
5999;SDS011;3028;49.468;7.694;2022-09-12T13:33:48;0.95;;;0.77;;
5999;SDS011;3028;49.468;7.694;2022-09-12T13:38:22;0.90;;;0.90;;
5999;SDS011;3028;49.468;7.694;2022-09-12T13:42:47;0.75;;;0.75;;
5999;SDS011;3028;49.468;7.694;2022-09-12T13:44:56;0.98;;;0.80;;
5999;SDS011;3028;49.468;7.694;2022-09-12T13:47:07;0.77;;;0.77;;
5999;SDS011;3028;49.468;7.694;2022-09-12T13:49:27;0.90;;;0.90;;
5999;SDS011;3028;49.468;7.694;2022-09-12T13:51:35;1.00;;;0.90;;
5999;SDS011;3028;49.468;7.694;2022-09-12T13:53:42;0.70;;;0.70;;
5999;SDS011;3028;49.468;7.694;2022-09-12T13:55:46;1.23;;;0.77;;
5999;SDS011;3028;49.468;7.694;2022-09-12T13:57:57;0.73;;;0.73;;
5999;SDS011;3028;49.468;7.694;2022-09-12T14:00:02;1.45;;;0.80;;
5999;SDS011;3028;49.468;7.694;2022-09-12T14:02:20;0.70;;;0.70;;
5999;SDS011;3028;49.468;7.694;2022-09-12T14:04:24;1.25;;;0.90;;
5999;SDS011;3028;49.468;7.694;2022-09-12T14:06:46;0.82;;;0.80;;
5999;SDS011;3028;49.468;7.694;2022-09-12T14:08:50;0.80;;;0.80;;
5999;SDS011;3028;49.468;7.694;2022-09-12T14:10:52;0.80;;;0.80;;
5999;SDS011;3028;49.468;7.694;2022-09-12T14:12:55;0.90;;;0.90;;
5999;SDS011;3028;49.468;7.694;2022-09-12T14:14:57;1.13;;;0.73;;
5999;SDS011;3028;49.468;7.694;2022-09-12T14:16:59;2.22;;;0.80;;
5999;SDS011;3028;49.468;7.694;2022-09-12T14:19:01;0.80;;;0.80;;
5999;SDS011;3028;49.468;7.694;2022-09-12T14:21:09;1.08;;;0.82;;
5999;SDS011;3028;49.468;7.694;2022-09-12T14:23:16;0.63;;;0.63;;
5999;SDS011;3028;49.468;7.694;2022-09-12T14:25:22;0.82;;;0.82;;
5999;SDS011;3028;49.468;7.694;2022-09-12T14:27:30;0.95;;;0.90;;
5999;SDS011;3028;49.468;7.694;2022-09-12T14:29:46;0.90;;;0.80;;
5999;SDS011;3028;49.468;7.694;2022-09-12T14:31:58;1.10;;;1.00;;
5999;SDS011;3028;49.468;7.694;2022-09-12T14:36:26;1.15;;;0.90;;
5999;SDS011;3028;49.468;7.694;2022-09-12T14:38:33;1.00;;;0.82;;
5999;SDS011;3028;49.468;7.694;2022-09-12T14:40:40;0.88;;;0.88;;
5999;SDS011;3028;49.468;7.694;2022-09-12T14:42:44;1.33;;;1.13;;
5999;SDS011;3028;49.468;7.694;2022-09-12T14:44:51;1.50;;;0.80;;
5999;SDS011;3028;49.468;7.694;2022-09-12T14:46:58;0.82;;;0.82;;
5999;SDS011;3028;49.468;7.694;2022-09-12T14:51:38;2.28;;;1.30;;
5999;SDS011;3028;49.468;7.694;2022-09-12T14:53:51;1.58;;;1.48;;
5999;SDS011;3028;49.468;7.694;2022-09-12T14:55:58;2.15;;;1.25;;
5999;SDS011;3028;49.468;7.694;2022-09-12T14:58:15;1.40;;;1.30;;
5999;SDS011;3028;49.468;7.694;2022-09-12T15:00:23;1.00;;;0.90;;
5999;SDS011;3028;49.468;7.694;2022-09-12T15:02:26;1.42;;;1.33;;
5999;SDS011;3028;49.468;7.694;2022-09-12T15:04:40;2.10;;;1.10;;